sensor_id;sensor_type;location;lat;lon;timestamp;pressure;altitude;pressure_sealevel;temperature;humidity
63009;BME280;49099;28.428;-16.488;2023-03-14T00:01:18;98928.91;;;19.02;64.58
63009;BME280;49099;28.428;-16.488;2023-03-14T00:03:50;98917.75;;;18.86;64.58
63009;BME280;49099;28.428;-16.488;2023-03-14T00:06:18;98909.97;;;18.76;64.83
63009;BME280;49099;28.428;-16.488;2023-03-14T00:08:45;98911.50;;;18.68;65.47
63009;BME280;49099;28.428;-16.488;2023-03-14T00:11:18;98902.72;;;18.62;65.77
63009;BME280;49099;28.428;-16.488;2023-03-14T00:13:47;98900.34;;;18.61;65.32
63009;BME280;49099;28.428;-16.488;2023-03-14T00:16:15;98907.91;;;18.59;65.64
63009;BME280;49099;28.428;-16.488;2023-03-14T00:18:42;98895.75;;;18.61;65.25
63009;BME280;49099;28.428;-16.488;2023-03-14T00:21:14;98887.81;;;18.56;65.14
63009;BME280;49099;28.428;-16.488;2023-03-14T00:23:42;98880.88;;;18.55;65.54
63009;BME280;49099;28.428;-16.488;2023-03-14T00:26:14;98884.66;;;18.54;65.96
63009;BME280;49099;28.428;-16.488;2023-03-14T00:28:42;98877.69;;;18.53;65.69
63009;BME280;49099;28.428;-16.488;2023-03-14T00:31:13;98880.50;;;18.48;65.99
63009;BME280;49099;28.428;-16.488;2023-03-14T00:33:41;98877.28;;;18.60;66.14
63009;BME280;49099;28.428;-16.488;2023-03-14T00:36:11;98865.09;;;18.62;66.16
63009;BME280;49099;28.428;-16.488;2023-03-14T00:38:39;98871.03;;;18.73;65.79
63009;BME280;49099;28.428;-16.488;2023-03-14T00:41:09;98878.78;;;18.75;65.01
63009;BME280;49099;28.428;-16.488;2023-03-14T00:43:37;98874.09;;;18.80;65.46
63009;BME280;49099;28.428;-16.488;2023-03-14T00:46:04;98886.72;;;18.80;64.97
63009;BME280;49099;28.428;-16.488;2023-03-14T00:48:32;98889.28;;;18.85;65.04
63009;BME280;49099;28.428;-16.488;2023-03-14T00:51:00;98881.88;;;18.90;64.62
63009;BME280;49099;28.428;-16.488;2023-03-14T00:53:27;98885.84;;;18.93;64.57
63009;BME280;49099;28.428;-16.488;2023-03-14T00:55:54;98884.28;;;18.92;64.42
63009;BME280;49099;28.428;-16.488;2023-03-14T00:58:21;98882.84;;;18.95;64.21
63009;BME280;49099;28.428;-16.488;2023-03-14T01:00:48;98880.03;;;19.00;63.88
63009;BME280;49099;28.428;-16.488;2023-03-14T01:03:15;98876.06;;;18.97;63.65
63009;BME280;49099;28.428;-16.488;2023-03-14T01:05:43;98885.22;;;18.96;64.00
63009;BME280;49099;28.428;-16.488;2023-03-14T01:08:10;98878.91;;;18.92;63.86
63009;BME280;49099;28.428;-16.488;2023-03-14T01:10:40;98875.09;;;18.93;63.79
63009;BME280;49099;28.428;-16.488;2023-03-14T01:13:08;98877.31;;;18.91;64.27
63009;BME280;49099;28.428;-16.488;2023-03-14T01:15:37;98882.97;;;18.89;63.75
63009;BME280;49099;28.428;-16.488;2023-03-14T01:18:05;98874.00;;;18.94;63.80
63009;BME280;49099;28.428;-16.488;2023-03-14T01:20:32;98875.47;;;19.00;63.94
63009;BME280;49099;28.428;-16.488;2023-03-14T01:22:59;98877.03;;;19.01;63.07
63009;BME280;49099;28.428;-16.488;2023-03-14T01:25:26;98876.56;;;18.99;63.40
63009;BME280;49099;28.428;-16.488;2023-03-14T01:27:54;98872.22;;;18.89;63.36
63009;BME280;49099;28.428;-16.488;2023-03-14T01:30:21;98881.59;;;18.92;62.71
63009;BME280;49099;28.428;-16.488;2023-03-14T01:32:49;98873.97;;;18.85;63.51
63009;BME280;49099;28.428;-16.488;2023-03-14T01:35:16;98876.97;;;18.84;63.43
63009;BME280;49099;28.428;-16.488;2023-03-14T01:37:43;98877.88;;;18.79;63.18
63009;BME280;49099;28.428;-16.488;2023-03-14T01:40:11;98866.13;;;18.75;63.38
63009;BME280;49099;28.428;-16.488;2023-03-14T01:42:38;98871.22;;;18.77;63.95
63009;BME280;49099;28.428;-16.488;2023-03-14T01:45:53;98874.41;;;18.79;64.12
63009;BME280;49099;28.428;-16.488;2023-03-14T01:47:52;98859.50;;;18.73;63.23
63009;BME280;49099;28.428;-16.488;2023-03-14T01:50:20;98853.16;;;18.69;63.80
63009;BME280;49099;28.428;-16.488;2023-03-14T01:52:49;98849.59;;;18.59;64.18
63009;BME280;49099;28.428;-16.488;2023-03-14T01:55:21;98841.03;;;18.57;63.44
63009;BME280;49099;28.428;-16.488;2023-03-14T01:57:54;98837.13;;;18.63;63.68
63009;BME280;49099;28.428;-16.488;2023-03-14T02:00:24;98827.38;;;18.68;64.17
63009;BME280;49099;28.428;-16.488;2023-03-14T02:02:56;98834.41;;;18.77;63.76
63009;BME280;49099;28.428;-16.488;2023-03-14T02:05:30;98832.63;;;18.73;62.88
63009;BME280;49099;28.428;-16.488;2023-03-14T02:08:01;98817.22;;;18.64;63.23
63009;BME280;49099;28.428;-16.488;2023-03-14T02:10:32;98817.72;;;18.67;63.87
63009;BME280;49099;28.428;-16.488;2023-03-14T02:13:02;98815.56;;;18.69;63.22
63009;BME280;49099;28.428;-16.488;2023-03-14T02:15:30;98820.66;;;18.56;62.93
63009;BME280;49099;28.428;-16.488;2023-03-14T02:17:58;98814.41;;;18.38;62.80
63009;BME280;49099;28.428;-16.488;2023-03-14T02:23:35;98816.84;;;18.26;63.06
63009;BME280;49099;28.428;-16.488;2023-03-14T02:26:09;98811.00;;;18.24;62.72
63009;BME280;49099;28.428;-16.488;2023-03-14T02:28:38;98806.34;;;18.16;61.95
63009;BME280;49099;28.428;-16.488;2023-03-14T02:31:05;98811.53;;;18.13;61.87
63009;BME280;49099;28.428;-16.488;2023-03-14T02:33:36;98800.16;;;18.07;61.83
63009;BME280;49099;28.428;-16.488;2023-03-14T02:36:07;98811.66;;;18.07;61.43
63009;BME280;49099;28.428;-16.488;2023-03-14T02:38:37;98806.09;;;18.04;61.81
63009;BME280;49099;28.428;-16.488;2023-03-14T02:41:08;98806.31;;;18.07;63.21
63009;BME280;49099;28.428;-16.488;2023-03-14T02:43:35;98800.16;;;18.07;62.50
63009;BME280;49099;28.428;-16.488;2023-03-14T02:46:05;98806.91;;;18.04;63.33
63009;BME280;49099;28.428;-16.488;2023-03-14T02:48:43;98804.84;;;18.01;63.45
63009;BME280;49099;28.428;-16.488;2023-03-14T02:51:13;98811.31;;;18.00;63.31
63009;BME280;49099;28.428;-16.488;2023-03-14T02:53:42;98811.88;;;17.97;63.00
63009;BME280;49099;28.428;-16.488;2023-03-14T02:56:09;98813.00;;;17.96;62.78
63009;BME280;49099;28.428;-16.488;2023-03-14T02:58:37;98811.41;;;17.95;62.73
63009;BME280;49099;28.428;-16.488;2023-03-14T03:01:05;98808.56;;;17.92;64.15
63009;BME280;49099;28.428;-16.488;2023-03-14T03:03:32;98805.34;;;17.90;63.94
63009;BME280;49099;28.428;-16.488;2023-03-14T03:05:59;98809.75;;;17.86;64.07
63009;BME280;49099;28.428;-16.488;2023-03-14T03:08:28;98803.59;;;17.85;64.10
63009;BME280;49099;28.428;-16.488;2023-03-14T03:10:56;98806.78;;;17.87;64.26
63009;BME280;49099;28.428;-16.488;2023-03-14T03:13:24;98799.81;;;17.86;63.76
63009;BME280;49099;28.428;-16.488;2023-03-14T03:15:52;98800.44;;;17.83;64.33
63009;BME280;49099;28.428;-16.488;2023-03-14T03:18:19;98792.50;;;17.78;63.97
63009;BME280;49099;28.428;-16.488;2023-03-14T03:20:46;98792.13;;;17.71;63.84
63009;BME280;49099;28.428;-16.488;2023-03-14T03:23:13;98777.59;;;17.72;63.17
63009;BME280;49099;28.428;-16.488;2023-03-14T03:25:41;98779.41;;;17.63;64.04
63009;BME280;49099;28.428;-16.488;2023-03-14T03:28:08;98784.34;;;17.69;64.07
63009;BME280;49099;28.428;-16.488;2023-03-14T03:30:39;98777.59;;;17.72;64.03
63009;BME280;49099;28.428;-16.488;2023-03-14T03:33:07;98766.28;;;17.75;63.52
63009;BME280;49099;28.428;-16.488;2023-03-14T03:35:34;98772.81;;;17.69;64.47
63009;BME280;49099;28.428;-16.488;2023-03-14T03:38:01;98754.84;;;17.69;65.00
63009;BME280;49099;28.428;-16.488;2023-03-14T03:40:29;98762.00;;;17.74;64.52
63009;BME280;49099;28.428;-16.488;2023-03-14T03:42:56;98754.75;;;17.74;64.80
63009;BME280;49099;28.428;-16.488;2023-03-14T03:45:23;98748.56;;;17.74;64.24
63009;BME280;49099;28.428;-16.488;2023-03-14T03:47:50;98754.75;;;17.74;63.71
63009;BME280;49099;28.428;-16.488;2023-03-14T03:50:17;98756.72;;;17.69;63.77
63009;BME280;49099;28.428;-16.488;2023-03-14T03:52:44;98757.31;;;17.66;63.76
63009;BME280;49099;28.428;-16.488;2023-03-14T03:55:12;98753.19;;;17.60;63.70
63009;BME280;49099;28.428;-16.488;2023-03-14T03:57:39;98752.69;;;17.58;64.53
63009;BME280;49099;28.428;-16.488;2023-03-14T04:00:06;98748.91;;;17.59;65.15
63009;BME280;49099;28.428;-16.488;2023-03-14T04:02:35;98746.72;;;17.61;64.52
63009;BME280;49099;28.428;-16.488;2023-03-14T04:05:03;98748.41;;;17.57;65.62
63009;BME280;49099;28.428;-16.488;2023-03-14T04:07:33;98741.88;;;17.49;65.58
63009;BME280;49099;28.428;-16.488;2023-03-14T04:10:00;98743.41;;;17.41;65.92
63009;BME280;49099;28.428;-16.488;2023-03-14T04:12:27;98743.53;;;17.36;66.25
63009;BME280;49099;28.428;-16.488;2023-03-14T04:14:55;98746.06;;;17.41;66.42
63009;BME280;49099;28.428;-16.488;2023-03-14T04:17:22;98742.22;;;17.34;65.77
63009;BME280;49099;28.428;-16.488;2023-03-14T04:19:49;98745.69;;;17.34;65.72
63009;BME280;49099;28.428;-16.488;2023-03-14T04:22:18;98737.47;;;17.31;65.92
63009;BME280;49099;28.428;-16.488;2023-03-14T04:24:45;98743.13;;;17.29;65.96
63009;BME280;49099;28.428;-16.488;2023-03-14T04:27:12;98745.31;;;17.27;66.02
63009;BME280;49099;28.428;-16.488;2023-03-14T04:29:44;98746.31;;;17.31;66.09
63009;BME280;49099;28.428;-16.488;2023-03-14T04:32:11;98749.09;;;17.26;65.91
63009;BME280;49099;28.428;-16.488;2023-03-14T04:34:38;98738.38;;;17.26;66.25
63009;BME280;49099;28.428;-16.488;2023-03-14T04:37:05;98740.16;;;17.31;66.38
63009;BME280;49099;28.428;-16.488;2023-03-14T04:39:32;98742.53;;;17.32;66.60
63009;BME280;49099;28.428;-16.488;2023-03-14T04:41:59;98737.97;;;17.33;66.58
63009;BME280;49099;28.428;-16.488;2023-03-14T04:44:26;98739.94;;;17.27;66.84
63009;BME280;49099;28.428;-16.488;2023-03-14T04:46:54;98745.53;;;17.17;67.51
63009;BME280;49099;28.428;-16.488;2023-03-14T04:49:21;98739.38;;;17.16;67.42
63009;BME280;49099;28.428;-16.488;2023-03-14T04:51:48;98743.78;;;17.12;67.61
63009;BME280;49099;28.428;-16.488;2023-03-14T04:54:17;98741.97;;;17.08;67.90
63009;BME280;49099;28.428;-16.488;2023-03-14T04:56:44;98733.94;;;17.08;67.88
63009;BME280;49099;28.428;-16.488;2023-03-14T04:59:11;98731.25;;;17.08;67.82
63009;BME280;49099;28.428;-16.488;2023-03-14T05:01:38;98738.59;;;17.16;67.68
63009;BME280;49099;28.428;-16.488;2023-03-14T05:04:06;98740.16;;;17.17;67.38
63009;BME280;49099;28.428;-16.488;2023-03-14T05:06:33;98725.28;;;17.24;67.06
63009;BME280;49099;28.428;-16.488;2023-03-14T05:09:00;98736.78;;;17.25;66.74
63009;BME280;49099;28.428;-16.488;2023-03-14T05:11:27;98729.34;;;17.22;66.50
63009;BME280;49099;28.428;-16.488;2023-03-14T05:13:54;98733.00;;;17.26;66.07
63009;BME280;49099;28.428;-16.488;2023-03-14T05:16:21;98726.06;;;17.25;64.65
63009;BME280;49099;28.428;-16.488;2023-03-14T05:18:49;98725.16;;;17.30;65.44
63009;BME280;49099;28.428;-16.488;2023-03-14T05:21:16;98717.31;;;17.33;65.38
63009;BME280;49099;28.428;-16.488;2023-03-14T05:23:44;98723.66;;;17.37;63.57
63009;BME280;49099;28.428;-16.488;2023-03-14T05:26:11;98720.84;;;17.42;61.91
63009;BME280;49099;28.428;-16.488;2023-03-14T05:28:38;98723.41;;;17.47;61.85
63009;BME280;49099;28.428;-16.488;2023-03-14T05:31:08;98727.69;;;17.48;60.72
63009;BME280;49099;28.428;-16.488;2023-03-14T05:33:36;98725.00;;;17.48;59.17
63009;BME280;49099;28.428;-16.488;2023-03-14T05:36:03;98723.84;;;17.41;60.33
63009;BME280;49099;28.428;-16.488;2023-03-14T05:38:30;98729.50;;;17.39;58.08
63009;BME280;49099;28.428;-16.488;2023-03-14T05:40:58;98732.66;;;17.41;58.83
63009;BME280;49099;28.428;-16.488;2023-03-14T05:43:25;98726.91;;;17.48;58.98
63009;BME280;49099;28.428;-16.488;2023-03-14T05:45:52;98735.50;;;17.59;57.49
63009;BME280;49099;28.428;-16.488;2023-03-14T05:48:19;98730.13;;;17.59;55.72
63009;BME280;49099;28.428;-16.488;2023-03-14T05:50:53;98735.50;;;17.59;57.58
63009;BME280;49099;28.428;-16.488;2023-03-14T05:53:20;98738.78;;;17.55;56.27
63009;BME280;49099;28.428;-16.488;2023-03-14T05:55:51;98742.09;;;17.52;57.34
63009;BME280;49099;28.428;-16.488;2023-03-14T05:58:18;98726.00;;;17.52;57.56
63009;BME280;49099;28.428;-16.488;2023-03-14T06:00:45;98743.66;;;17.53;57.18
63009;BME280;49099;28.428;-16.488;2023-03-14T06:03:12;98738.31;;;17.53;56.15
63009;BME280;49099;28.428;-16.488;2023-03-14T06:05:39;98748.03;;;17.49;56.33
63009;BME280;49099;28.428;-16.488;2023-03-14T06:08:07;98737.94;;;17.46;57.04
63009;BME280;49099;28.428;-16.488;2023-03-14T06:10:35;98741.22;;;17.43;57.63
63009;BME280;49099;28.428;-16.488;2023-03-14T06:13:03;98739.50;;;17.47;58.60
63009;BME280;49099;28.428;-16.488;2023-03-14T06:15:30;98738.16;;;17.59;58.84
63009;BME280;49099;28.428;-16.488;2023-03-14T06:17:57;98738.69;;;17.61;59.02
63009;BME280;49099;28.428;-16.488;2023-03-14T06:20:24;98741.16;;;17.71;59.13
63009;BME280;49099;28.428;-16.488;2023-03-14T06:22:51;98745.31;;;17.77;59.27
63009;BME280;49099;28.428;-16.488;2023-03-14T06:25:18;98742.63;;;17.77;59.45
63009;BME280;49099;28.428;-16.488;2023-03-14T06:27:45;98741.69;;;17.81;59.21
63009;BME280;49099;28.428;-16.488;2023-03-14T06:30:12;98748.53;;;17.88;59.16
63009;BME280;49099;28.428;-16.488;2023-03-14T06:32:40;98745.53;;;17.89;59.30
63009;BME280;49099;28.428;-16.488;2023-03-14T06:35:07;98751.88;;;17.93;60.13
63009;BME280;49099;28.428;-16.488;2023-03-14T06:37:35;98746.53;;;17.93;59.64
63009;BME280;49099;28.428;-16.488;2023-03-14T06:40:02;98746.88;;;18.00;59.60
63009;BME280;49099;28.428;-16.488;2023-03-14T06:42:29;98737.38;;;17.94;59.34
63009;BME280;49099;28.428;-16.488;2023-03-14T06:44:56;98726.28;;;17.87;59.80
63009;BME280;49099;28.428;-16.488;2023-03-14T06:47:23;98731.31;;;17.89;59.17
63009;BME280;49099;28.428;-16.488;2023-03-14T06:49:51;98732.06;;;17.80;59.90
63009;BME280;49099;28.428;-16.488;2023-03-14T06:52:18;98725.06;;;17.71;59.75
63009;BME280;49099;28.428;-16.488;2023-03-14T06:54:45;98727.94;;;17.61;60.01
63009;BME280;49099;28.428;-16.488;2023-03-14T06:57:12;98727.75;;;17.57;60.36
63009;BME280;49099;28.428;-16.488;2023-03-14T06:59:39;98728.69;;;17.52;60.43
63009;BME280;49099;28.428;-16.488;2023-03-14T07:02:10;98725.47;;;17.50;60.07
63009;BME280;49099;28.428;-16.488;2023-03-14T07:04:38;98733.03;;;17.48;60.32
63009;BME280;49099;28.428;-16.488;2023-03-14T07:07:06;98728.16;;;17.50;59.90
63009;BME280;49099;28.428;-16.488;2023-03-14T07:09:34;98730.63;;;17.61;60.18
63009;BME280;49099;28.428;-16.488;2023-03-14T07:12:02;98735.16;;;17.74;59.57
63009;BME280;49099;28.428;-16.488;2023-03-14T07:14:30;98730.97;;;17.81;59.36
63009;BME280;49099;28.428;-16.488;2023-03-14T07:16:58;98730.69;;;17.83;59.13
63009;BME280;49099;28.428;-16.488;2023-03-14T07:19:25;98729.22;;;17.77;59.55
63009;BME280;49099;28.428;-16.488;2023-03-14T07:21:52;98725.72;;;17.76;59.55
63009;BME280;49099;28.428;-16.488;2023-03-14T07:24:19;98729.09;;;17.82;59.50
63009;BME280;49099;28.428;-16.488;2023-03-14T07:26:46;98728.16;;;17.87;59.65
63009;BME280;49099;28.428;-16.488;2023-03-14T07:29:13;98721.69;;;17.88;60.24
63009;BME280;49099;28.428;-16.488;2023-03-14T07:31:40;98721.91;;;17.91;60.14
63009;BME280;49099;28.428;-16.488;2023-03-14T07:34:08;98720.16;;;17.95;60.08
63009;BME280;49099;28.428;-16.488;2023-03-14T07:36:35;98726.53;;;17.99;60.00
63009;BME280;49099;28.428;-16.488;2023-03-14T07:39:02;98727.25;;;17.91;60.54
63009;BME280;49099;28.428;-16.488;2023-03-14T07:41:31;98733.31;;;17.74;59.48
63009;BME280;49099;28.428;-16.488;2023-03-14T07:43:59;98718.59;;;17.58;60.29
63009;BME280;49099;28.428;-16.488;2023-03-14T07:46:26;98724.41;;;17.51;61.32
63009;BME280;49099;28.428;-16.488;2023-03-14T07:48:53;98715.69;;;17.46;61.53
63009;BME280;49099;28.428;-16.488;2023-03-14T07:51:21;98721.47;;;17.39;63.12
63009;BME280;49099;28.428;-16.488;2023-03-14T07:53:47;98722.66;;;17.33;63.74
63009;BME280;49099;28.428;-16.488;2023-03-14T07:56:15;98731.13;;;17.26;64.48
63009;BME280;49099;28.428;-16.488;2023-03-14T07:58:42;98731.41;;;17.25;64.90
63009;BME280;49099;28.428;-16.488;2023-03-14T08:01:09;98736.41;;;17.18;64.98
63009;BME280;49099;28.428;-16.488;2023-03-14T08:03:36;98742.53;;;17.18;64.84
63009;BME280;49099;28.428;-16.488;2023-03-14T08:06:03;98746.53;;;17.21;64.92
63009;BME280;49099;28.428;-16.488;2023-03-14T08:08:30;98752.38;;;17.23;64.53
63009;BME280;49099;28.428;-16.488;2023-03-14T08:11:05;98756.41;;;17.34;64.51
63009;BME280;49099;28.428;-16.488;2023-03-14T08:13:32;98753.63;;;17.39;64.09
63009;BME280;49099;28.428;-16.488;2023-03-14T08:15:59;98750.84;;;17.44;64.12
63009;BME280;49099;28.428;-16.488;2023-03-14T08:18:27;98754.81;;;17.47;63.98
63009;BME280;49099;28.428;-16.488;2023-03-14T08:20:54;98756.38;;;17.48;64.24
63009;BME280;49099;28.428;-16.488;2023-03-14T08:23:21;98757.19;;;17.48;64.61
63009;BME280;49099;28.428;-16.488;2023-03-14T08:25:49;98766.81;;;17.49;64.81
63009;BME280;49099;28.428;-16.488;2023-03-14T08:28:17;98771.44;;;17.58;64.95
63009;BME280;49099;28.428;-16.488;2023-03-14T08:30:45;98773.03;;;17.59;64.96
63009;BME280;49099;28.428;-16.488;2023-03-14T08:33:15;98781.47;;;17.66;64.70
63009;BME280;49099;28.428;-16.488;2023-03-14T08:35:42;98782.97;;;17.72;64.04
63009;BME280;49099;28.428;-16.488;2023-03-14T08:38:09;98778.41;;;17.72;63.95
63009;BME280;49099;28.428;-16.488;2023-03-14T08:40:37;98794.38;;;17.77;64.15
63009;BME280;49099;28.428;-16.488;2023-03-14T08:43:04;98790.28;;;17.80;63.98
63009;BME280;49099;28.428;-16.488;2023-03-14T08:45:31;98793.50;;;17.82;63.67
63009;BME280;49099;28.428;-16.488;2023-03-14T08:47:58;98797.44;;;17.85;63.49
63009;BME280;49099;28.428;-16.488;2023-03-14T08:50:26;98799.19;;;17.89;63.46
63009;BME280;49099;28.428;-16.488;2023-03-14T08:52:53;98800.81;;;17.90;63.71
63009;BME280;49099;28.428;-16.488;2023-03-14T08:55:20;98791.66;;;17.91;63.77
63009;BME280;49099;28.428;-16.488;2023-03-14T08:57:47;98801.34;;;18.01;63.45
63009;BME280;49099;28.428;-16.488;2023-03-14T09:00:15;98807.50;;;18.01;63.25
63009;BME280;49099;28.428;-16.488;2023-03-14T09:02:42;98797.25;;;18.03;63.29
63009;BME280;49099;28.428;-16.488;2023-03-14T09:05:10;98797.78;;;18.05;63.61
63009;BME280;49099;28.428;-16.488;2023-03-14T09:07:38;98797.47;;;18.07;63.78
63009;BME280;49099;28.428;-16.488;2023-03-14T09:10:07;98799.72;;;18.14;63.59
63009;BME280;49099;28.428;-16.488;2023-03-14T09:12:35;98801.78;;;18.17;63.49
63009;BME280;49099;28.428;-16.488;2023-03-14T09:15:02;98792.50;;;18.23;63.76
63009;BME280;49099;28.428;-16.488;2023-03-14T09:17:30;98796.47;;;18.25;63.75
63009;BME280;49099;28.428;-16.488;2023-03-14T09:19:57;98796.31;;;18.22;63.61
63009;BME280;49099;28.428;-16.488;2023-03-14T09:22:26;98800.06;;;18.21;64.25
63009;BME280;49099;28.428;-16.488;2023-03-14T09:24:53;98810.00;;;18.20;63.81
63009;BME280;49099;28.428;-16.488;2023-03-14T09:27:20;98810.78;;;18.21;64.08
63009;BME280;49099;28.428;-16.488;2023-03-14T09:29:47;98817.47;;;18.23;64.21
63009;BME280;49099;28.428;-16.488;2023-03-14T09:32:14;98816.41;;;18.33;64.29
63009;BME280;49099;28.428;-16.488;2023-03-14T09:34:41;98825.16;;;18.38;64.37
63009;BME280;49099;28.428;-16.488;2023-03-14T09:37:08;98825.78;;;18.44;64.64
63009;BME280;49099;28.428;-16.488;2023-03-14T09:39:35;98834.53;;;18.50;64.55
63009;BME280;49099;28.428;-16.488;2023-03-14T09:42:06;98832.03;;;18.53;64.67
63009;BME280;49099;28.428;-16.488;2023-03-14T09:44:37;98837.88;;;18.55;65.53
63009;BME280;49099;28.428;-16.488;2023-03-14T09:47:09;98832.38;;;18.60;64.88
63009;BME280;49099;28.428;-16.488;2023-03-14T09:49:41;98830.50;;;18.61;64.77
63009;BME280;49099;28.428;-16.488;2023-03-14T09:52:19;98835.16;;;18.69;64.68
63009;BME280;49099;28.428;-16.488;2023-03-14T09:54:50;98820.66;;;18.79;64.09
63009;BME280;49099;28.428;-16.488;2023-03-14T09:57:21;98808.66;;;18.85;63.58
63009;BME280;49099;28.428;-16.488;2023-03-14T09:59:51;98818.97;;;18.91;63.60
63009;BME280;49099;28.428;-16.488;2023-03-14T10:02:23;98808.84;;;18.97;63.19
63009;BME280;49099;28.428;-16.488;2023-03-14T10:04:52;98811.28;;;19.07;63.24
63009;BME280;49099;28.428;-16.488;2023-03-14T10:07:28;98812.22;;;19.11;63.09
63009;BME280;49099;28.428;-16.488;2023-03-14T10:09:56;98809.88;;;19.18;63.00
63009;BME280;49099;28.428;-16.488;2023-03-14T10:12:35;98815.47;;;19.31;62.68
63009;BME280;49099;28.428;-16.488;2023-03-14T10:15:08;98823.38;;;19.36;62.17
63009;BME280;49099;28.428;-16.488;2023-03-14T10:17:46;98810.44;;;19.46;61.66
63009;BME280;49099;28.428;-16.488;2023-03-14T10:21:09;98818.00;;;19.53;61.17
63009;BME280;49099;28.428;-16.488;2023-03-14T10:23:28;98809.50;;;19.60;61.19
63009;BME280;49099;28.428;-16.488;2023-03-14T10:26:15;98807.13;;;19.58;61.78
63009;BME280;49099;28.428;-16.488;2023-03-14T10:28:49;98796.84;;;19.60;62.17
63009;BME280;49099;28.428;-16.488;2023-03-14T10:31:18;98807.00;;;19.63;62.22
63009;BME280;49099;28.428;-16.488;2023-03-14T10:34:03;98795.25;;;19.59;62.38
63009;BME280;49099;28.428;-16.488;2023-03-14T10:36:32;98790.84;;;19.63;62.40
63009;BME280;49099;28.428;-16.488;2023-03-14T10:39:22;98799.56;;;19.69;62.26
63009;BME280;49099;28.428;-16.488;2023-03-14T10:41:53;98794.97;;;19.69;62.14
63009;BME280;49099;28.428;-16.488;2023-03-14T10:44:24;98785.94;;;19.74;62.00
63009;BME280;49099;28.428;-16.488;2023-03-14T10:47:00;98788.63;;;19.83;61.94
63009;BME280;49099;28.428;-16.488;2023-03-14T10:49:33;98781.84;;;19.85;61.66
63009;BME280;49099;28.428;-16.488;2023-03-14T10:54:54;98778.47;;;19.97;61.33
63009;BME280;49099;28.428;-16.488;2023-03-14T10:57:23;98769.47;;;20.01;61.19
63009;BME280;49099;28.428;-16.488;2023-03-14T10:59:51;98772.94;;;20.11;61.19
63009;BME280;49099;28.428;-16.488;2023-03-14T11:07:47;98766.88;;;20.22;60.41
63009;BME280;49099;28.428;-16.488;2023-03-14T11:10:31;98759.31;;;20.16;60.53
63009;BME280;49099;28.428;-16.488;2023-03-14T11:21:52;98763.56;;;20.25;59.96
63009;BME280;49099;28.428;-16.488;2023-03-14T11:27:21;98762.44;;;20.26;59.85
63009;BME280;49099;28.428;-16.488;2023-03-14T11:29:55;98755.94;;;20.27;59.67
63009;BME280;49099;28.428;-16.488;2023-03-14T11:32:59;98766.72;;;20.27;59.88
63009;BME280;49099;28.428;-16.488;2023-03-14T11:35:44;98762.59;;;20.21;60.19
63009;BME280;49099;28.428;-16.488;2023-03-14T11:41:10;98758.19;;;20.25;60.12
63009;BME280;49099;28.428;-16.488;2023-03-14T11:43:40;98752.13;;;20.28;60.30
63009;BME280;49099;28.428;-16.488;2023-03-14T11:51:46;98737.34;;;20.43;60.28
63009;BME280;49099;28.428;-16.488;2023-03-14T11:56:59;98744.19;;;20.41;60.43
63009;BME280;49099;28.428;-16.488;2023-03-14T12:02:20;98723.25;;;20.55;59.81
63009;BME280;49099;28.428;-16.488;2023-03-14T12:07:34;98724.47;;;20.66;59.66
63009;BME280;49099;28.428;-16.488;2023-03-14T12:10:05;98726.78;;;20.76;59.91
63009;BME280;49099;28.428;-16.488;2023-03-14T12:12:33;98733.56;;;20.82;59.58
63009;BME280;49099;28.428;-16.488;2023-03-14T12:15:02;98724.03;;;20.85;59.65
63009;BME280;49099;28.428;-16.488;2023-03-14T12:17:40;98729.41;;;20.94;59.71
63009;BME280;49099;28.428;-16.488;2023-03-14T12:20:18;98726.97;;;21.01;59.34
63009;BME280;49099;28.428;-16.488;2023-03-14T12:22:48;98730.94;;;21.03;59.25
63009;BME280;49099;28.428;-16.488;2023-03-14T12:25:22;98725.19;;;21.05;59.63
63009;BME280;49099;28.428;-16.488;2023-03-14T12:41:24;98705.72;;;21.29;58.40
63009;BME280;49099;28.428;-16.488;2023-03-14T12:43:53;98709.19;;;21.29;58.59
63009;BME280;49099;28.428;-16.488;2023-03-14T12:57:09;98691.63;;;21.65;57.94
63009;BME280;49099;28.428;-16.488;2023-03-14T12:59:51;98690.22;;;21.59;58.48
63009;BME280;49099;28.428;-16.488;2023-03-14T13:02:29;98686.84;;;21.62;58.66
63009;BME280;49099;28.428;-16.488;2023-03-14T13:10:24;98683.34;;;21.82;58.14
63009;BME280;49099;28.428;-16.488;2023-03-14T13:15:39;98671.22;;;21.88;58.15
63009;BME280;49099;28.428;-16.488;2023-03-14T13:18:13;98670.53;;;21.91;58.07
63009;BME280;49099;28.428;-16.488;2023-03-14T13:20:51;98664.78;;;21.93;58.79
63009;BME280;49099;28.428;-16.488;2023-03-14T13:23:28;98657.72;;;22.01;58.59
63009;BME280;49099;28.428;-16.488;2023-03-14T13:25:57;98656.56;;;22.10;58.32
63009;BME280;49099;28.428;-16.488;2023-03-14T13:28:27;98660.69;;;22.08;58.02
63009;BME280;49099;28.428;-16.488;2023-03-14T13:31:02;98658.00;;;22.08;58.20
63009;BME280;49099;28.428;-16.488;2023-03-14T13:33:29;98651.16;;;22.10;58.29
63009;BME280;49099;28.428;-16.488;2023-03-14T13:36:01;98652.19;;;22.18;58.27
63009;BME280;49099;28.428;-16.488;2023-03-14T13:38:35;98650.16;;;22.27;58.33
63009;BME280;49099;28.428;-16.488;2023-03-14T13:41:07;98652.06;;;22.39;58.13
63009;BME280;49099;28.428;-16.488;2023-03-14T13:43:43;98649.69;;;22.37;58.08
63009;BME280;49099;28.428;-16.488;2023-03-14T13:46:20;98655.34;;;22.44;57.89
63009;BME280;49099;28.428;-16.488;2023-03-14T13:49:22;98657.34;;;22.47;57.26
63009;BME280;49099;28.428;-16.488;2023-03-14T13:51:49;98663.00;;;22.42;57.82
63009;BME280;49099;28.428;-16.488;2023-03-14T13:54:19;98667.94;;;22.40;57.78
63009;BME280;49099;28.428;-16.488;2023-03-14T13:56:46;98666.91;;;22.33;57.76
63009;BME280;49099;28.428;-16.488;2023-03-14T13:59:24;98660.97;;;22.27;58.18
63009;BME280;49099;28.428;-16.488;2023-03-14T14:01:53;98660.19;;;22.27;58.38
63009;BME280;49099;28.428;-16.488;2023-03-14T14:04:22;98657.00;;;22.24;58.69